Time;durP1;ratioP1;P1;durP2;ratioP2;P2;SDS_P1;SDS_P2;PMS_P1;PMS_P2;Temp;Humidity;BMP_temperature;BMP_pressure;BME280_temperature;BME280_humidity;BME280_pressure;Samples;Min_cycle;Max_cycle;Signal;HPM_P1;HPM_P2
2022/08/26 00:00:17;;;;;;;;;;;;;;;;;;5029536;28;46439;-76
2022/08/26 00:02:44;;;;;;;;;;;;;;;;;;5023816;28;46864;-76
2022/08/26 00:05:10;;;;;;;;;;;;;;;;;;5012310;28;44788;-76
2022/08/26 00:07:36;;;;;;;;;;;;;;;;;;5028120;28;46542;-77
2022/08/26 00:10:03;;;;;;;;;;;;;;;;;;5030086;28;47701;-76
2022/08/26 00:12:29;;;;;;;;;;;;;;;;;;5009735;28;43672;-76
2022/08/26 00:15:01;;;;;;;;;;;;;;;;;;5031289;28;44579;-76
2022/08/26 00:17:27;;;;;;;;;;;;;;;;;;5030096;28;42383;-76
2022/08/26 00:19:53;;;;;;;;;;;;;;;;;;5026594;28;46272;-76
2022/08/26 00:22:21;;;;;;;;;;;;;;;;;;5022119;28;47024;-76
2022/08/26 00:24:47;;;;;;;;;;;;;;;;;;5024047;28;43915;-76
2022/08/26 00:27:13;;;;;;;;;;;;;;;;;;5027458;28;47571;-76
2022/08/26 00:29:39;;;;;;;;;;;;;;;;;;5024100;28;46547;-76
2022/08/26 00:32:05;;;;;;;;;;;;;;;;;;5012797;28;41883;-76
2022/08/26 00:34:32;;;;;;;;;;;;;;;;;;5009537;28;47974;-76
2022/08/26 00:36:58;;;;;;;;;;;;;;;;;;5030001;28;48003;-76
2022/08/26 00:39:24;;;;;;;;;;;;;;;;;;5029126;28;47401;-76
2022/08/26 00:41:50;;;;;;;;;;;;;;;;;;5027857;28;45868;-76
2022/08/26 00:44:17;;;;;;;;;;;;;;;;;;5028026;28;43600;-76
2022/08/26 00:46:44;;;;;;;;;;;;;;;;;;5013168;28;46325;-76
2022/08/26 00:49:12;;;;;;;;;;;;;;;;;;5025466;28;47078;-76
2022/08/26 00:51:38;;;;;;;;;;;;;;;;;;5013360;28;43601;-76
2022/08/26 00:54:04;;;;;;;;;;;;;;;;;;5009696;28;47003;-76
2022/08/26 00:56:30;;;;;;;;;;;;;;;;;;5012133;28;45446;-76
2022/08/26 00:58:57;;;;;;;;;;;;;;;;;;5032002;28;43732;-76
2022/08/26 01:01:24;;;;;;;;;;;;;;;;;;5029759;28;46998;-76
2022/08/26 01:03:51;;;;;;;;;;;;;;;;;;5028875;28;40723;-76
2022/08/26 01:06:17;;;;;;;;;;;;;;;;;;5024385;28;46395;-77
2022/08/26 01:08:44;;;;;;;;;;;;;;;;;;5027011;28;47019;-76
2022/08/26 01:11:10;;;;;;;;;;;;;;;;;;5027775;28;43866;-76
2022/08/26 01:13:37;;;;;;;;;;;;;;;;;;5019207;28;47544;-76
2022/08/26 01:16:03;;;;;;;;;;;;;;;;;;5029406;28;45162;-77
2022/08/26 01:18:30;;;;;;;;;;;;;;;;;;5028823;28;44710;-77
2022/08/26 01:20:56;;;;;;;;;;;;;;;;;;5022625;28;47852;-76
2022/08/26 01:23:23;;;;;;;;;;;;;;;;;;5027545;28;44065;-76
2022/08/26 01:25:49;;;;;;;;;;;;;;;;;;5029200;28;46448;-76
2022/08/26 01:28:15;;;;;;;;;;;;;;;;;;5030009;28;48356;-76
2022/08/26 01:30:41;;;;;;;;;;;;;;;;;;5028827;28;43469;-76
2022/08/26 01:33:08;;;;;;;;;;;;;;;;;;5026320;28;44670;-76
2022/08/26 01:35:34;;;;;;;;;;;;;;;;;;5023190;28;48165;-76
2022/08/26 01:38:01;;;;;;;;;;;;;;;;;;5028067;28;44827;-76
2022/08/26 01:40:27;;;;;;;;;;;;;;;;;;5009755;28;46757;-76
2022/08/26 01:42:53;;;;;;;;;;;;;;;;;;5012704;28;32675;-76
2022/08/26 01:45:19;;;;;;;;;;;;;;;;;;5026497;28;46639;-76
2022/08/26 01:47:46;;;;;;;;;;;;;;;;;;5027044;28;48043;-76
2022/08/26 01:50:12;;;;;;;;;;;;;;;;;;5014724;28;44831;-76
2022/08/26 01:52:39;;;;;;;;;;;;;;;;;;5021970;28;46411;-76
2022/08/26 01:55:05;;;;;;;;;;;;;;;;;;5009960;28;46995;-76
2022/08/26 01:57:31;;;;;;;;;;;;;;;;;;5025662;28;43867;-76
2022/08/26 01:59:58;;;;;;;;;;;;;;;;;;5028034;28;47499;-76
2022/08/26 02:02:24;;;;;;;;;;;;;;;;;;5024553;28;47091;-76
2022/08/26 02:04:50;;;;;;;;;;;;;;;;;;5020595;28;46455;-76
2022/08/26 02:07:17;;;;;;;;;;;;;;;;;;5027972;28;46396;-76
2022/08/26 02:09:43;;;;;;;;;;;;;;;;;;5026259;28;44818;-76
2022/08/26 02:12:09;;;;;;;;;;;;;;;;;;5019479;28;46346;-76
2022/08/26 02:14:37;;;;;;;;;;;;;;;;;;5011797;28;46491;-76
2022/08/26 02:17:08;;;;;;;;;;;;;;;;;;5024924;28;43675;-77
2022/08/26 02:19:35;;;;;;;;;;;;;;;;;;5010161;28;44664;-76
2022/08/26 02:22:01;;;;;;;;;;;;;;;;;;5023422;28;47037;-76
2022/08/26 02:24:27;;;;;;;;;;;;;;;;;;5031754;28;43563;-76
2022/08/26 02:26:53;;;;;;;;;;;;;;;;;;5031418;28;46829;-76
2022/08/26 02:29:20;;;;;;;;;;;;;;;;;;5030989;28;43675;-76
2022/08/26 02:31:47;;;;;;;;;;;;;;;;;;5026685;28;44473;-77
2022/08/26 02:34:13;;;;;;;;;;;;;;;;;;5015676;28;45894;-76
2022/08/26 02:36:40;;;;;;;;;;;;;;;;;;5015869;28;41808;-76
2022/08/26 02:39:06;;;;;;;;;;;;;;;;;;5023194;28;44854;-76
2022/08/26 02:41:32;;;;;;;;;;;;;;;;;;5026907;28;45553;-76
2022/08/26 02:43:58;;;;;;;;;;;;;;;;;;5031612;28;43764;-76
2022/08/26 02:46:25;;;;;;;;;;;;;;;;;;5021403;28;46155;-76
2022/08/26 02:48:55;;;;;;;;;;;;;;;;;;5030199;28;45403;-76
2022/08/26 02:51:21;;;;;;;;;;;;;;;;;;5025788;28;46408;-76
2022/08/26 02:53:47;;;;;;;;;;;;;;;;;;5024886;28;46006;-76
2022/08/26 02:56:13;;;;;;;;;;;;;;;;;;5019509;28;44450;-76
2022/08/26 02:58:40;;;;;;;;;;;;;;;;;;5029458;28;46181;-76
2022/08/26 03:01:06;;;;;;;;;;;;;;;;;;5020346;28;46518;-76
2022/08/26 03:03:32;;;;;;;;;;;;;;;;;;5029104;28;45120;-76
2022/08/26 03:05:59;;;;;;;;;;;;;;;;;;5018853;28;44812;-76
2022/08/26 03:08:26;;;;;;;;;;;;;;;;;;5028490;28;48075;-76
2022/08/26 03:10:52;;;;;;;;;;;;;;;;;;5028688;28;46282;-76
2022/08/26 03:13:18;;;;;;;;;;;;;;;;;;5028637;28;47344;-76
2022/08/26 03:15:44;;;;;;;;;;;;;;;;;;5013701;28;43850;-77
2022/08/26 03:18:12;;;;;;;;;;;;;;;;;;5019248;28;46849;-77
2022/08/26 03:20:38;;;;;;;;;;;;;;;;;;5009904;28;46952;-76
2022/08/26 03:23:05;;;;;;;;;;;;;;;;;;5012341;28;43671;-76
2022/08/26 03:25:31;;;;;;;;;;;;;;;;;;5030880;28;46574;-76
2022/08/26 03:27:57;;;;;;;;;;;;;;;;;;5028837;28;47024;-76
2022/08/26 03:30:40;;;;;;;;;;;;;;;;;;5016494;28;45024;-76
2022/08/26 03:33:10;;;;;;;;;;;;;;;;;;5011618;28;46874;-76
2022/08/26 03:35:36;;;;;;;;;;;;;;;;;;5029042;28;44834;-76
2022/08/26 03:38:03;;;;;;;;;;;;;;;;;;5028605;28;45862;-76
2022/08/26 03:40:32;;;;;;;;;;;;;;;;;;5026231;28;45266;-76
2022/08/26 03:42:58;;;;;;;;;;;;;;;;;;5004593;28;45230;-78
2022/08/26 03:45:24;;;;;;;;;;;;;;;;;;5014850;28;46178;-75
2022/08/26 03:47:51;;;;;;;;;;;;;;;;;;5030712;28;47393;-75
2022/08/26 03:50:18;;;;;;;;;;;;;;;;;;5028777;28;42763;-76
2022/08/26 03:52:48;;;;;;;;;;;;;;;;;;5025089;28;48891;-75
2022/08/26 03:55:14;;;;;;;;;;;;;;;;;;5029658;28;39880;-75
2022/08/26 03:57:40;;;;;;;;;;;;;;;;;;5026257;28;46399;-76
2022/08/26 04:00:07;;;;;;;;;;;;;;;;;;5015588;28;45448;-75
2022/08/26 04:02:33;;;;;;;;;;;;;;;;;;5008378;28;45110;-75
2022/08/26 04:04:59;;;;;;;;;;;;;;;;;;4991498;28;45566;-76
2022/08/26 04:07:25;;;;;;;;;;;;;;;;;;5003219;28;46989;-75
2022/08/26 04:09:52;;;;;;;;;;;;;;;;;;5013100;28;44543;-76
2022/08/26 04:12:18;;;;;;;;;;;;;;;;;;5022353;28;44509;-75
2022/08/26 04:14:45;;;;;;;;;;;;;;;;;;5027808;28;43736;-76
2022/08/26 04:17:12;;;;;;;;;;;;;;;;;;5028233;28;44454;-76
2022/08/26 04:19:39;;;;;;;;;;;;;;;;;;5026817;28;46996;-75
2022/08/26 04:22:07;;;;;;;;;;;;;;;;;;5024100;28;43757;-75
2022/08/26 04:24:33;;;;;;;;;;;;;;;;;;5028259;28;47874;-75
2022/08/26 04:27:02;;;;;;;;;;;;;;;;;;5024701;28;47130;-76
2022/08/26 04:29:28;;;;;;;;;;;;;;;;;;5019149;28;44844;-75
2022/08/26 04:31:54;;;;;;;;;;;;;;;;;;5024382;28;46232;-76
2022/08/26 04:34:21;;;;;;;;;;;;;;;;;;5024286;28;45235;-75
2022/08/26 04:36:47;;;;;;;;;;;;;;;;;;5028916;28;46539;-75
2022/08/26 04:39:18;;;;;;;;;;;;;;;;;;5025844;28;48061;-75
2022/08/26 04:41:45;;;;;;;;;;;;;;;;;;5010007;28;41925;-75
2022/08/26 04:44:11;;;;;;;;;;;;;;;;;;5027916;28;47544;-75
2022/08/26 04:46:38;;;;;;;;;;;;;;;;;;5026622;28;47071;-75
2022/08/26 04:49:07;;;;;;;;;;;;;;;;;;5020957;28;44110;-76
2022/08/26 04:51:33;;;;;;;;;;;;;;;;;;5010621;28;46237;-76
2022/08/26 04:53:59;;;;;;;;;;;;;;;;;;5019061;28;47970;-76
2022/08/26 04:56:25;;;;;;;;;;;;;;;;;;5018769;28;43786;-75
2022/08/26 04:58:52;;;;;;;;;;;;;;;;;;5016574;28;47976;-78
2022/08/26 05:01:18;;;;;;;;;;;;;;;;;;5011111;28;41239;-78
2022/08/26 05:03:45;;;;;;;;;;;;;;;;;;5028555;28;44559;-76
2022/08/26 05:06:13;;;;;;;;;;;;;;;;;;5027586;28;37071;-76
2022/08/26 05:08:39;;;;;;;;;;;;;;;;;;5024677;28;43573;-76
2022/08/26 05:11:06;;;;;;;;;;;;;;;;;;5016834;28;46210;-76
2022/08/26 05:13:33;;;;;;;;;;;;;;;;;;5026998;28;47386;-76
2022/08/26 05:15:59;;;;;;;;;;;;;;;;;;5028690;28;41921;-76
2022/08/26 05:18:28;;;;;;;;;;;;;;;;;;5027026;28;45916;-76
2022/08/26 05:20:54;;;;;;;;;;;;;;;;;;5026103;28;44648;-76
2022/08/26 05:23:21;;;;;;;;;;;;;;;;;;5024368;28;47606;-76
2022/08/26 05:25:47;;;;;;;;;;;;;;;;;;5008967;28;47010;-76
2022/08/26 05:28:14;;;;;;;;;;;;;;;;;;5027565;28;44875;-76
2022/08/26 05:30:40;;;;;;;;;;;;;;;;;;5023778;28;44849;-76
2022/08/26 05:33:07;;;;;;;;;;;;;;;;;;5010435;28;45593;-76
2022/08/26 05:35:33;;;;;;;;;;;;;;;;;;5010091;28;44629;-76
2022/08/26 05:38:00;;;;;;;;;;;;;;;;;;5027603;28;47502;-76
2022/08/26 05:40:26;;;;;;;;;;;;;;;;;;5027777;28;45333;-76
2022/08/26 05:42:52;;;;;;;;;;;;;;;;;;5026500;28;44329;-76
2022/08/26 05:45:19;;;;;;;;;;;;;;;;;;5014639;28;46824;-76
2022/08/26 05:47:45;;;;;;;;;;;;;;;;;;5021328;28;44758;-76
2022/08/26 05:50:11;;;;;;;;;;;;;;;;;;5019692;28;44523;-76
2022/08/26 05:52:37;;;;;;;;;;;;;;;;;;5022611;28;46136;-76
2022/08/26 05:55:04;;;;;;;;;;;;;;;;;;5008677;28;43756;-76
2022/08/26 05:57:30;;;;;;;;;;;;;;;;;;5018558;28;46474;-75
2022/08/26 05:59:56;;;;;;;;;;;;;;;;;;5021302;28;46153;-75
2022/08/26 06:02:22;;;;;;;;;;;;;;;;;;5015982;28;46473;-75
2022/08/26 06:04:49;;;;;;;;;;;;;;;;;;5022258;28;48488;-76
2022/08/26 06:07:15;;;;;;;;;;;;;;;;;;5044225;28;42673;-75
2022/08/26 06:09:42;;;;;;;;;;;;;;;;;;5035988;28;46838;-76
2022/08/26 06:12:08;;;;;;;;;;;;;;;;;;5032029;28;48081;-76
2022/08/26 06:14:34;;;;;;;;;;;;;;;;;;5008311;28;43738;-76
2022/08/26 06:17:01;;;;;;;;;;;;;;;;;;5013718;28;47499;-77
2022/08/26 06:19:28;;;;;;;;;;;;;;;;;;5030282;28;45791;-76
2022/08/26 06:25:36;;;;;;;;;;;;;;;;;;5031913;28;45271;-76
2022/08/26 06:27:32;;;;;;;;;;;;;;;;;;5026238;28;44873;-76
2022/08/26 06:29:58;;;;;;;;;;;;;;;;;;5027051;28;46438;-76
2022/08/26 06:32:25;;;;;;;;;;;;;;;;;;5039815;28;48053;-76
2022/08/26 06:34:51;;;;;;;;;;;;;;;;;;5036006;28;43751;-76
2022/08/26 06:37:17;;;;;;;;;;;;;;;;;;5020425;28;45481;-76
2022/08/26 06:39:43;;;;;;;;;;;;;;;;;;5012617;28;48033;-76
2022/08/26 06:42:09;;;;;;;;;;;;;;;;;;5036834;28;44078;-76
2022/08/26 06:44:37;;;;;;;;;;;;;;;;;;5017875;28;46423;-76
2022/08/26 06:47:03;;;;;;;;;;;;;;;;;;5030535;28;43471;-77
2022/08/26 06:49:29;;;;;;;;;;;;;;;;;;5020154;28;46311;-76
2022/08/26 06:51:58;;;;;;;;;;;;;;;;;;5028268;28;46440;-76
2022/08/26 06:54:25;;;;;;;;;;;;;;;;;;5027746;28;43694;-76
2022/08/26 06:56:51;;;;;;;;;;;;;;;;;;5025947;28;45120;-77
2022/08/26 06:59:17;;;;;;;;;;;;;;;;;;5027792;28;47955;-78
2022/08/26 07:01:44;;;;;;;;;;;;;;;;;;5009902;28;45060;-77
2022/08/26 07:04:10;;;;;;;;;;;;;;;;;;5020719;28;46629;-77
2022/08/26 07:06:37;;;;;;;;;;;;;;;;;;5014835;28;46858;-77
2022/08/26 07:09:03;;;;;;;;;;;;;;;;;;5030885;28;45895;-77
2022/08/26 07:11:29;;;;;;;;;;;;;;;;;;5028622;28;47035;-78
2022/08/26 07:13:57;;;;;;;;;;;;;;;;;;5019022;28;43521;-77
2022/08/26 07:16:24;;;;;;;;;;;;;;;;;;5022518;28;47491;-77
2022/08/26 07:18:52;;;;;;;;;;;;;;;;;;5028652;28;45409;-77
2022/08/26 07:21:18;;;;;;;;;;;;;;;;;;5024569;28;42421;-77
2022/08/26 07:23:44;;;;;;;;;;;;;;;;;;5030254;28;45872;-75
2022/08/26 07:26:11;;;;;;;;;;;;;;;;;;5011438;28;48170;-76
2022/08/26 07:28:37;;;;;;;;;;;;;;;;;;5025414;28;44839;-77
2022/08/26 07:31:03;;;;;;;;;;;;;;;;;;5010876;28;45261;-76
2022/08/26 07:33:30;;;;;;;;;;;;;;;;;;5015073;28;43007;-77
2022/08/26 07:35:56;;;;;;;;;;;;;;;;;;5029788;28;46238;-77
2022/08/26 07:38:22;;;;;;;;;;;;;;;;;;5029344;28;45217;-77
2022/08/26 07:40:48;;;;;;;;;;;;;;;;;;5029850;28;41259;-76
2022/08/26 07:43:15;;;;;;;;;;;;;;;;;;5029539;28;47506;-77
2022/08/26 07:45:43;;;;;;;;;;;;;;;;;;5011463;28;45505;-77
2022/08/26 07:48:09;;;;;;;;;;;;;;;;;;5012357;28;44155;-76
2022/08/26 07:50:36;;;;;;;;;;;;;;;;;;5020344;28;47608;-77
2022/08/26 07:53:16;;;;;;;;;;;;;;;;;;5005632;28;43897;-76
2022/08/26 07:55:43;;;;;;;;;;;;;;;;;;5022214;28;47533;-76
2022/08/26 07:58:09;;;;;;;;;;;;;;;;;;5022520;28;50334;-77
2022/08/26 08:00:35;;;;;;;;;;;;;;;;;;5023960;28;43783;-77
2022/08/26 08:03:01;;;;;;;;;;;;;;;;;;5023502;28;46424;-77
2022/08/26 08:05:31;;;;;;;;;;;;;;;;;;5009650;28;48138;-77
2022/08/26 08:07:58;;;;;;;;;;;;;;;;;;5016827;28;44401;-77
2022/08/26 08:10:45;;;;;;;;;;;;;;;;;;5022667;28;19940;-76
2022/08/26 08:13:14;;;;;;;;;;;;;;;;;;5030937;28;43660;-76
2022/08/26 08:15:40;;;;;;;;;;;;;;;;;;5028261;28;44959;-76
2022/08/26 08:18:06;;;;;;;;;;;;;;;;;;5020231;28;46647;-76
2022/08/26 08:20:40;;;;;;;;;;;;;;;;;;5009722;28;43640;-76
2022/08/26 08:23:10;;;;;;;;;;;;;;;;;;5017622;28;45585;-76
2022/08/26 08:25:36;;;;;;;;;;;;;;;;;;5028142;28;45319;-76
2022/08/26 08:28:02;;;;;;;;;;;;;;;;;;5031468;28;44965;-76
2022/08/26 08:30:28;;;;;;;;;;;;;;;;;;5030046;28;46213;-76
2022/08/26 08:32:55;;;;;;;;;;;;;;;;;;5010651;28;44410;-76
2022/08/26 08:35:21;;;;;;;;;;;;;;;;;;5011113;28;46800;-76
2022/08/26 08:37:49;;;;;;;;;;;;;;;;;;5025740;28;48486;-76
2022/08/26 08:40:19;;;;;;;;;;;;;;;;;;5025510;28;42644;-76
2022/08/26 08:42:45;;;;;;;;;;;;;;;;;;5023210;28;46642;-75
2022/08/26 08:45:12;;;;;;;;;;;;;;;;;;5023101;28;47333;-75
2022/08/26 08:47:40;;;;;;;;;;;;;;;;;;5024817;28;42054;-75
2022/08/26 08:50:07;;;;;;;;;;;;;;;;;;5010432;28;46521;-76
2022/08/26 08:52:34;;;;;;;;;;;;;;;;;;5026151;28;47003;-76
2022/08/26 08:55:00;;;;;;;;;;;;;;;;;;5010977;28;45123;-76
2022/08/26 08:57:26;;;;;;;;;;;;;;;;;;5025838;28;48409;-76
2022/08/26 08:59:53;;;;;;;;;;;;;;;;;;5028855;28;44756;-76
2022/08/26 09:02:19;;;;;;;;;;;;;;;;;;5023222;28;47342;-76
2022/08/26 09:04:45;;;;;;;;;;;;;;;;;;5028204;28;48401;-75
2022/08/26 09:07:11;;;;;;;;;;;;;;;;;;5024381;28;44652;-75
2022/08/26 09:09:38;;;;;;;;;;;;;;;;;;5026926;28;47399;-75
2022/08/26 09:12:04;;;;;;;;;;;;;;;;;;5020814;28;48103;-75
2022/08/26 09:14:30;;;;;;;;;;;;;;;;;;5017389;28;43739;-75
2022/08/26 09:16:56;;;;;;;;;;;;;;;;;;5013884;28;46419;-75
2022/08/26 09:19:23;;;;;;;;;;;;;;;;;;5021372;28;44337;-75
2022/08/26 09:21:49;;;;;;;;;;;;;;;;;;5017928;28;46190;-75
2022/08/26 09:24:18;;;;;;;;;;;;;;;;;;5012402;28;46301;-75
2022/08/26 09:26:44;;;;;;;;;;;;;;;;;;5026060;28;44742;-75
2022/08/26 09:29:12;;;;;;;;;;;;;;;;;;5021780;28;48190;-75
2022/08/26 09:31:39;;;;;;;;;;;;;;;;;;5024947;28;48233;-75
2022/08/26 09:34:05;;;;;;;;;;;;;;;;;;5028541;28;44197;-75
2022/08/26 09:36:31;;;;;;;;;;;;;;;;;;5028132;28;45234;-75
2022/08/26 09:39:01;;;;;;;;;;;;;;;;;;5026679;28;47331;-75
2022/08/26 09:41:30;;;;;;;;;;;;;;;;;;5015323;28;46358;-75
2022/08/26 09:43:57;;;;;;;;;;;;;;;;;;5007506;28;46878;-75
2022/08/26 09:46:23;;;;;;;;;;;;;;;;;;5026837;28;42479;-75
2022/08/26 09:48:49;;;;;;;;;;;;;;;;;;5030109;28;46819;-75
2022/08/26 09:51:16;;;;;;;;;;;;;;;;;;5028429;28;46886;-75
2022/08/26 09:53:43;;;;;;;;;;;;;;;;;;5033781;28;44727;-75
2022/08/26 09:56:09;;;;;;;;;;;;;;;;;;5010655;28;45433;-75
2022/08/26 09:58:35;;;;;;;;;;;;;;;;;;5022279;28;46872;-75
2022/08/26 10:01:02;;;;;;;;;;;;;;;;;;5026512;28;45057;-75
2022/08/26 10:03:29;;;;;;;;;;;;;;;;;;5021298;28;46884;-74
2022/08/26 10:05:57;;;;;;;;;;;;;;;;;;5031099;28;42790;-75
2022/08/26 10:08:23;;;;;;;;;;;;;;;;;;5011453;28;47369;-75
2022/08/26 10:10:50;;;;;;;;;;;;;;;;;;5028756;28;47107;-75
2022/08/26 10:13:18;;;;;;;;;;;;;;;;;;5012304;28;43772;-75
2022/08/26 10:15:45;;;;;;;;;;;;;;;;;;5012959;28;44825;-75
2022/08/26 10:18:15;;;;;;;;;;;;;;;;;;5021652;28;46093;-76
2022/08/26 10:20:42;;;;;;;;;;;;;;;;;;5025845;28;44093;-75
2022/08/26 10:23:08;;;;;;;;;;;;;;;;;;5011601;28;46120;-75
2022/08/26 10:25:34;;;;;;;;;;;;;;;;;;5029645;28;45208;-75
2022/08/26 10:28:01;;;;;;;;;;;;;;;;;;5031430;28;45224;-76
2022/08/26 10:30:27;;;;;;;;;;;;;;;;;;5026101;28;47002;-75
2022/08/26 10:32:53;;;;;;;;;;;;;;;;;;5030446;28;44527;-76
2022/08/26 10:35:19;;;;;;;;;;;;;;;;;;5014546;28;45676;-76
2022/08/26 10:37:46;;;;;;;;;;;;;;;;;;5030787;28;47126;-76
2022/08/26 10:40:12;;;;;;;;;;;;;;;;;;5031804;28;43730;-75
2022/08/26 10:42:38;;;;;;;;;;;;;;;;;;5030080;28;47767;-76
2022/08/26 10:45:04;;;;;;;;;;;;;;;;;;5027892;28;44704;-75
2022/08/26 10:47:31;;;;;;;;;;;;;;;;;;5030067;28;46458;-75
2022/08/26 10:49:57;;;;;;;;;;;;;;;;;;5024992;28;47038;-75
2022/08/26 10:52:28;;;;;;;;;;;;;;;;;;4998087;28;44605;-75
2022/08/26 10:54:54;;;;;;;;;;;;;;;;;;4998045;28;46977;-76
2022/08/26 10:57:20;;;;;;;;;;;;;;;;;;5014236;28;46818;-76
2022/08/26 10:59:47;;;;;;;;;;;;;;;;;;5027579;28;43752;-76
2022/08/26 11:02:13;;;;;;;;;;;;;;;;;;5030455;28;46361;-76
2022/08/26 11:04:39;;;;;;;;;;;;;;;;;;5012682;28;48114;-76
2022/08/26 11:07:10;;;;;;;;;;;;;;;;;;5022425;28;45598;-76
2022/08/26 11:09:37;;;;;;;;;;;;;;;;;;5028492;28;46904;-75
2022/08/26 11:12:03;;;;;;;;;;;;;;;;;;5029802;28;41898;-76
2022/08/26 11:14:35;;;;;;;;;;;;;;;;;;5028584;28;46719;-76
2022/08/26 11:17:11;;;;;;;;;;;;;;;;;;5018747;28;47319;-76
2022/08/26 11:19:38;;;;;;;;;;;;;;;;;;5027829;28;41966;-76
2022/08/26 11:22:25;;;;;;;;;;;;;;;;;;5012649;28;45705;-76
2022/08/26 11:24:51;;;;;;;;;;;;;;;;;;5030093;28;46976;-76
2022/08/26 11:27:18;;;;;;;;;;;;;;;;;;5028904;28;43773;-75
2022/08/26 11:29:44;;;;;;;;;;;;;;;;;;5022544;28;48107;-76
2022/08/26 11:32:10;;;;;;;;;;;;;;;;;;5012698;28;45795;-76
2022/08/26 11:34:36;;;;;;;;;;;;;;;;;;5028349;28;47495;-76
2022/08/26 11:37:03;;;;;;;;;;;;;;;;;;5027655;28;46954;-76
2022/08/26 11:39:30;;;;;;;;;;;;;;;;;;5008770;28;44895;-76
2022/08/26 11:41:58;;;;;;;;;;;;;;;;;;5008019;28;46087;-76
2022/08/26 11:44:25;;;;;;;;;;;;;;;;;;5023287;28;48048;-76
2022/08/26 11:46:51;;;;;;;;;;;;;;;;;;5011286;28;42245;-76
2022/08/26 11:49:17;;;;;;;;;;;;;;;;;;5023134;28;47520;-75
2022/08/26 11:51:43;;;;;;;;;;;;;;;;;;5027698;28;43538;-76
2022/08/26 11:54:13;;;;;;;;;;;;;;;;;;5030105;28;47796;-76
2022/08/26 11:56:40;;;;;;;;;;;;;;;;;;5029770;28;43872;-76
2022/08/26 11:59:07;;;;;;;;;;;;;;;;;;5025655;28;43745;-75
2022/08/26 12:01:34;;;;;;;;;;;;;;;;;;5027160;28;47878;-76
2022/08/26 12:04:00;;;;;;;;;;;;;;;;;;5011198;28;48351;-76
2022/08/26 12:06:27;;;;;;;;;;;;;;;;;;5010497;28;44056;-75
2022/08/26 12:08:53;;;;;;;;;;;;;;;;;;5023709;28;46796;-75
2022/08/26 12:11:19;;;;;;;;;;;;;;;;;;5029645;28;32568;-76
2022/08/26 12:13:46;;;;;;;;;;;;;;;;;;5011668;28;46429;-76
2022/08/26 12:16:12;;;;;;;;;;;;;;;;;;5030357;28;47812;-76
2022/08/26 12:18:38;;;;;;;;;;;;;;;;;;5029026;28;45654;-76
2022/08/26 12:21:04;;;;;;;;;;;;;;;;;;5014420;28;45018;-76
2022/08/26 12:23:31;;;;;;;;;;;;;;;;;;5031618;28;47005;-76
2022/08/26 12:25:57;;;;;;;;;;;;;;;;;;5013563;28;43966;-75
2022/08/26 12:28:23;;;;;;;;;;;;;;;;;;5022709;28;45345;-76
2022/08/26 12:30:49;;;;;;;;;;;;;;;;;;5013318;28;47016;-77
2022/08/26 12:33:16;;;;;;;;;;;;;;;;;;5032235;28;46548;-77
2022/08/26 12:35:47;;;;;;;;;;;;;;;;;;5031122;28;45254;-76
2022/08/26 12:38:15;;;;;;;;;;;;;;;;;;5026010;28;45349;-77
2022/08/26 12:40:42;;;;;;;;;;;;;;;;;;5028448;28;47533;-76
2022/08/26 12:43:08;;;;;;;;;;;;;;;;;;5013438;28;46913;-76
2022/08/26 12:45:34;;;;;;;;;;;;;;;;;;5033530;28;44415;-76
2022/08/26 12:48:00;;;;;;;;;;;;;;;;;;5030202;28;47751;-76
2022/08/26 12:50:27;;;;;;;;;;;;;;;;;;5027480;28;48614;-76
2022/08/26 12:52:53;;;;;;;;;;;;;;;;;;5017130;28;44758;-76
2022/08/26 12:55:19;;;;;;;;;;;;;;;;;;5014685;28;48035;-77
2022/08/26 12:57:46;;;;;;;;;;;;;;;;;;5016903;28;43621;-81
2022/08/26 13:00:13;;;;;;;;;;;;;;;;;;5064195;28;47502;-82
2022/08/26 13:02:39;;;;;;;;;;;;;;;;;;5035333;28;45857;-80
2022/08/26 13:05:05;;;;;;;;;;;;;;;;;;5021252;28;42054;-80
2022/08/26 13:07:31;;;;;;;;;;;;;;;;;;5036172;28;46422;-79
2022/08/26 13:09:58;;;;;;;;;;;;;;;;;;5017680;28;47878;-79
2022/08/26 13:12:24;;;;;;;;;;;;;;;;;;5010495;28;42498;-78
2022/08/26 13:14:50;;;;;;;;;;;;;;;;;;5038748;28;43978;-79
2022/08/26 13:17:17;;;;;;;;;;;;;;;;;;5037056;28;44491;-79
2022/08/26 13:19:43;;;;;;;;;;;;;;;;;;5038689;28;44242;-79
2022/08/26 13:22:10;;;;;;;;;;;;;;;;;;5024697;28;43949;-78
2022/08/26 13:24:39;;;;;;;;;;;;;;;;;;5031290;28;43760;-78
2022/08/26 13:27:06;;;;;;;;;;;;;;;;;;5031768;28;47369;-78
2022/08/26 13:29:32;;;;;;;;;;;;;;;;;;5032444;28;46859;-78
2022/08/26 13:31:58;;;;;;;;;;;;;;;;;;5042295;28;42132;-78
2022/08/26 13:34:24;;;;;;;;;;;;;;;;;;5020414;28;45515;-78
2022/08/26 13:36:52;;;;;;;;;;;;;;;;;;5020788;28;46435;-77
2022/08/26 13:39:18;;;;;;;;;;;;;;;;;;5018882;28;46295;-77
2022/08/26 13:41:44;;;;;;;;;;;;;;;;;;5017621;28;45039;-77
2022/08/26 13:44:11;;;;;;;;;;;;;;;;;;5033237;28;43404;-77
2022/08/26 13:46:37;;;;;;;;;;;;;;;;;;5015359;28;44519;-77
2022/08/26 13:49:03;;;;;;;;;;;;;;;;;;5015928;28;46014;-77
2022/08/26 13:51:30;;;;;;;;;;;;;;;;;;5028548;28;44915;-77
2022/08/26 13:53:56;;;;;;;;;;;;;;;;;;5035500;28;45872;-77
2022/08/26 13:56:22;;;;;;;;;;;;;;;;;;5032863;28;45419;-78
2022/08/26 13:58:49;;;;;;;;;;;;;;;;;;5017699;28;43738;-77
2022/08/26 14:01:15;;;;;;;;;;;;;;;;;;5015923;28;46793;-78
2022/08/26 14:03:42;;;;;;;;;;;;;;;;;;5019994;28;45159;-77
2022/08/26 14:06:08;;;;;;;;;;;;;;;;;;5022769;28;47095;-77
2022/08/26 14:08:35;;;;;;;;;;;;;;;;;;5018052;28;44562;-78
2022/08/26 14:11:01;;;;;;;;;;;;;;;;;;5017730;28;41758;-77
2022/08/26 14:13:28;;;;;;;;;;;;;;;;;;5016580;28;44596;-77
2022/08/26 14:15:57;;;;;;;;;;;;;;;;;;5014215;28;48457;-78
2022/08/26 14:18:23;;;;;;;;;;;;;;;;;;5021349;28;45113;-78
2022/08/26 14:20:49;;;;;;;;;;;;;;;;;;5037951;28;47924;-77
2022/08/26 14:23:17;;;;;;;;;;;;;;;;;;5020530;28;44691;-77
2022/08/26 14:25:44;;;;;;;;;;;;;;;;;;5035199;28;46573;-77
2022/08/26 14:28:10;;;;;;;;;;;;;;;;;;5035985;28;48089;-77
2022/08/26 14:30:37;;;;;;;;;;;;;;;;;;5020807;28;42219;-77
2022/08/26 14:33:03;;;;;;;;;;;;;;;;;;5030228;28;46471;-77
2022/08/26 14:35:29;;;;;;;;;;;;;;;;;;5003142;28;47153;-78
2022/08/26 14:37:55;;;;;;;;;;;;;;;;;;5021026;28;42710;-77
2022/08/26 14:40:22;;;;;;;;;;;;;;;;;;5017362;28;46304;-77
2022/08/26 14:42:48;;;;;;;;;;;;;;;;;;5029228;28;43943;-77
2022/08/26 14:45:16;;;;;;;;;;;;;;;;;;5016305;28;46074;-78
2022/08/26 14:47:42;;;;;;;;;;;;;;;;;;5033465;28;45236;-79
2022/08/26 14:50:09;;;;;;;;;;;;;;;;;;5033384;28;41599;-78
2022/08/26 14:54:10;;;;;;;;;;;;;;;;;;5028903;28;47605;-78
2022/08/26 14:55:21;;;;;;;;;;;;;;;;;;5033370;28;47152;-78
2022/08/26 14:57:47;;;;;;;;;;;;;;;;;;5030677;28;44831;-78
2022/08/26 15:00:14;;;;;;;;;;;;;;;;;;5024016;28;46114;-78
2022/08/26 15:02:40;;;;;;;;;;;;;;;;;;5031723;28;45000;-78
2022/08/26 15:05:07;;;;;;;;;;;;;;;;;;5032090;28;45995;-78
2022/08/26 15:07:33;;;;;;;;;;;;;;;;;;5025874;28;48101;-78
2022/08/26 15:09:59;;;;;;;;;;;;;;;;;;5033020;28;43526;-78
2022/08/26 15:12:26;;;;;;;;;;;;;;;;;;5029454;28;46301;-78
2022/08/26 15:14:52;;;;;;;;;;;;;;;;;;5033530;28;47010;-78
2022/08/26 15:17:19;;;;;;;;;;;;;;;;;;5039372;28;43802;-78
2022/08/26 15:19:46;;;;;;;;;;;;;;;;;;5039864;28;45960;-77
2022/08/26 15:22:12;;;;;;;;;;;;;;;;;;5029286;28;45864;-78
2022/08/26 15:24:38;;;;;;;;;;;;;;;;;;5028372;28;44835;-78
2022/08/26 15:27:04;;;;;;;;;;;;;;;;;;5030441;28;47027;-78
2022/08/26 15:29:31;;;;;;;;;;;;;;;;;;5021905;28;43860;-78
2022/08/26 15:31:58;;;;;;;;;;;;;;;;;;5030343;28;44971;-78
2022/08/26 15:34:25;;;;;;;;;;;;;;;;;;5029760;28;46753;-78
2022/08/26 15:36:51;;;;;;;;;;;;;;;;;;5007600;28;45924;-78
2022/08/26 15:39:17;;;;;;;;;;;;;;;;;;5025466;28;45769;-77
2022/08/26 15:41:44;;;;;;;;;;;;;;;;;;5027874;28;46046;-77
2022/08/26 15:44:10;;;;;;;;;;;;;;;;;;5024076;28;43730;-77
2022/08/26 15:46:36;;;;;;;;;;;;;;;;;;5028276;28;47713;-77
2022/08/26 15:49:03;;;;;;;;;;;;;;;;;;5021134;28;44149;-77
2022/08/26 15:51:29;;;;;;;;;;;;;;;;;;5020860;28;44490;-78
2022/08/26 15:53:56;;;;;;;;;;;;;;;;;;5011989;28;48071;-78
2022/08/26 15:56:22;;;;;;;;;;;;;;;;;;5020950;28;43725;-77
2022/08/26 15:58:49;;;;;;;;;;;;;;;;;;5007684;28;46702;-78
2022/08/26 16:01:16;;;;;;;;;;;;;;;;;;5027387;28;47001;-77
2022/08/26 16:03:43;;;;;;;;;;;;;;;;;;5021206;28;44124;-77
2022/08/26 16:06:09;;;;;;;;;;;;;;;;;;5020196;28;46246;-77
2022/08/26 16:08:35;;;;;;;;;;;;;;;;;;5021892;28;47020;-77
2022/08/26 16:11:02;;;;;;;;;;;;;;;;;;5011221;28;46178;-77
2022/08/26 16:13:28;;;;;;;;;;;;;;;;;;5023725;28;46768;-78
2022/08/26 16:15:55;;;;;;;;;;;;;;;;;;5014099;28;43642;-78
2022/08/26 16:18:21;;;;;;;;;;;;;;;;;;5014663;28;47817;-78
2022/08/26 16:20:51;;;;;;;;;;;;;;;;;;5013869;28;46001;-77
2022/08/26 16:23:31;;;;;;;;;;;;;;;;;;5016608;28;45357;-77
2022/08/26 16:25:57;;;;;;;;;;;;;;;;;;5014190;28;46397;-77
2022/08/26 16:28:24;;;;;;;;;;;;;;;;;;5016969;28;46999;-76
2022/08/26 16:30:51;;;;;;;;;;;;;;;;;;5023439;28;46586;-77
2022/08/26 16:33:19;;;;;;;;;;;;;;;;;;5019391;28;48394;-77
2022/08/26 16:35:52;;;;;;;;;;;;;;;;;;5009440;28;45215;-77
2022/08/26 16:38:21;;;;;;;;;;;;;;;;;;5020558;28;46413;-77
2022/08/26 16:40:47;;;;;;;;;;;;;;;;;;5024221;28;46940;-77
2022/08/26 16:43:13;;;;;;;;;;;;;;;;;;5020588;28;43702;-76
2022/08/26 16:45:40;;;;;;;;;;;;;;;;;;5023619;28;47411;-77